CDG4615 ZSQD-RKSI
Flight info
| Callsign | CDG4615 |
|---|---|
| Flight time | 1h 5m |
| Altitude | 29100 |
| Route | LAT91D LATUX W209 AGAVO/N0453F290 Y644 REBIT REBIT1Y |
| Aircraft | B738/M-SDE2E3FGHIRWXY/LB1 |
Departure
| Time | 2026-04-20 05:24 |
|---|---|
| Airport | Qingdao Jiaodong International Airport (ZSQD) |
Arrival
| Time | 2026-04-20 06:29 |
|---|---|
| Airport | Incheon International Airport (RKSI) |
| Time | Latitude | Longitude | Altitude | Speed | Heading |
|---|---|---|---|---|---|
| 2026-04-20 05:02 | 36.36292 | 120.09499 | 34 ft | 0 kts | 74° |
| 2026-04-20 05:10 | 36.36291 | 120.09496 | 35 ft | 0 kts | 74° |
| 2026-04-20 05:18 | 36.36292 | 120.09500 | 34 ft | 2 kts | 74° |
| 2026-04-20 05:18 | 36.36299 | 120.09530 | 35 ft | 5 kts | 70° |
| 2026-04-20 05:18 | 36.36302 | 120.09574 | 35 ft | 6 kts | 109° |
| 2026-04-20 05:18 | 36.36262 | 120.09610 | 35 ft | 8 kts | 155° |
| 2026-04-20 05:19 | 36.36194 | 120.09635 | 34 ft | 12 kts | 165° |
| 2026-04-20 05:19 | 36.36097 | 120.09673 | 34 ft | 17 kts | 161° |
| 2026-04-20 05:19 | 36.36031 | 120.09774 | 35 ft | 16 kts | 83° |
| 2026-04-20 05:19 | 36.36067 | 120.09902 | 35 ft | 16 kts | 72° |
| 2026-04-20 05:20 | 36.36050 | 120.09967 | 35 ft | 10 kts | 168° |
| 2026-04-20 05:20 | 36.35972 | 120.09957 | 35 ft | 12 kts | 185° |
| 2026-04-20 05:20 | 36.35885 | 120.09978 | 35 ft | 16 kts | 159° |
| 2026-04-20 05:20 | 36.35766 | 120.10026 | 35 ft | 19 kts | 161° |
| 2026-04-20 05:21 | 36.35642 | 120.10076 | 35 ft | 18 kts | 162° |
| 2026-04-20 05:21 | 36.35523 | 120.10122 | 34 ft | 18 kts | 165° |
| 2026-04-20 05:21 | 36.35408 | 120.10168 | 35 ft | 17 kts | 162° |
| 2026-04-20 05:21 | 36.35296 | 120.10210 | 35 ft | 16 kts | 163° |
| 2026-04-20 05:22 | 36.35189 | 120.10251 | 34 ft | 16 kts | 162° |
| 2026-04-20 05:22 | 36.35088 | 120.10291 | 33 ft | 15 kts | 163° |
| 2026-04-20 05:22 | 36.34990 | 120.10332 | 35 ft | 15 kts | 147° |
| 2026-04-20 05:22 | 36.34994 | 120.10443 | 35 ft | 14 kts | 55° |
| 2026-04-20 05:23 | 36.35067 | 120.10513 | 36 ft | 13 kts | 7° |
| 2026-04-20 05:23 | 36.35159 | 120.10484 | 35 ft | 18 kts | 342° |
| 2026-04-20 05:23 | 36.35402 | 120.10388 | 35 ft | 64 kts | 342° |
| 2026-04-20 05:23 | 36.36015 | 120.10147 | 34 ft | 118 kts | 342° |
| 2026-04-20 05:24 | 36.36942 | 120.09771 | 97 ft | 157 kts | 342° |
| 2026-04-20 05:24 | 36.37980 | 120.09380 | 756 ft | 155 kts | 342° |
| 2026-04-20 05:24 | 36.38982 | 120.08973 | 1582 ft | 148 kts | 344° |
| 2026-04-20 05:24 | 36.39982 | 120.08580 | 2146 ft | 162 kts | 342° |
| 2026-04-20 05:25 | 36.41145 | 120.08128 | 2354 ft | 186 kts | 342° |
| 2026-04-20 05:25 | 36.42438 | 120.07623 | 2538 ft | 204 kts | 344° |
| 2026-04-20 05:25 | 36.43864 | 120.07110 | 2771 ft | 221 kts | 341° |
| 2026-04-20 05:25 | 36.45373 | 120.06463 | 3192 ft | 236 kts | 343° |
| 2026-04-20 05:26 | 36.46938 | 120.05849 | 4015 ft | 236 kts | 345° |
| 2026-04-20 05:26 | 36.48563 | 120.05701 | 4827 ft | 237 kts | 10° |
| 2026-04-20 05:26 | 36.50086 | 120.06525 | 5541 ft | 247 kts | 32° |
| 2026-04-20 05:26 | 36.51292 | 120.08125 | 6158 ft | 264 kts | 55° |
| 2026-04-20 05:27 | 36.51986 | 120.10295 | 6854 ft | 274 kts | 67° |
| 2026-04-20 05:27 | 36.52555 | 120.12582 | 7500 ft | 281 kts | 68° |
| 2026-04-20 05:27 | 36.53134 | 120.14922 | 8156 ft | 285 kts | 68° |
| 2026-04-20 05:27 | 36.53728 | 120.17288 | 8847 ft | 289 kts | 68° |
| 2026-04-20 05:28 | 36.54341 | 120.19700 | 9488 ft | 295 kts | 67° |
| 2026-04-20 05:28 | 36.54762 | 120.22233 | 10108 ft | 308 kts | 87° |
| 2026-04-20 05:28 | 36.54244 | 120.24814 | 10667 ft | 320 kts | 117° |
| 2026-04-20 05:28 | 36.52772 | 120.26951 | 10908 ft | 338 kts | 147° |
| 2026-04-20 05:29 | 36.50585 | 120.28161 | 11105 ft | 353 kts | 165° |
| 2026-04-20 05:29 | 36.48167 | 120.29065 | 11311 ft | 371 kts | 167° |
| 2026-04-20 05:29 | 36.45623 | 120.29963 | 11799 ft | 378 kts | 167° |
| 2026-04-20 05:29 | 36.43115 | 120.30862 | 12478 ft | 380 kts | 167° |
| 2026-04-20 05:30 | 36.40568 | 120.31800 | 13204 ft | 383 kts | 167° |
| 2026-04-20 05:30 | 36.38005 | 120.32770 | 13889 ft | 386 kts | 167° |
| 2026-04-20 05:30 | 36.35421 | 120.33763 | 14465 ft | 391 kts | 168° |
| 2026-04-20 05:30 | 36.32811 | 120.34770 | 15087 ft | 394 kts | 168° |
| 2026-04-20 05:31 | 36.30186 | 120.35788 | 15741 ft | 397 kts | 169° |
| 2026-04-20 05:31 | 36.27544 | 120.36815 | 16371 ft | 400 kts | 170° |
| 2026-04-20 05:31 | 36.24876 | 120.37852 | 16971 ft | 404 kts | 170° |
| 2026-04-20 05:31 | 36.22186 | 120.38904 | 17576 ft | 407 kts | 171° |
| 2026-04-20 05:32 | 36.19470 | 120.39959 | 18186 ft | 410 kts | 172° |
| 2026-04-20 05:32 | 36.16734 | 120.41016 | 18790 ft | 412 kts | 172° |
| 2026-04-20 05:32 | 36.14027 | 120.42066 | 19313 ft | 415 kts | 172° |
| 2026-04-20 05:32 | 36.11259 | 120.43140 | 19812 ft | 417 kts | 173° |
| 2026-04-20 05:33 | 36.08483 | 120.44217 | 20326 ft | 420 kts | 173° |
| 2026-04-20 05:33 | 36.05672 | 120.45305 | 20789 ft | 423 kts | 173° |
| 2026-04-20 05:33 | 36.02847 | 120.46399 | 21234 ft | 427 kts | 173° |
| 2026-04-20 05:33 | 36.00001 | 120.47501 | 21699 ft | 430 kts | 173° |
| 2026-04-20 05:34 | 35.97132 | 120.48609 | 22165 ft | 433 kts | 173° |
| 2026-04-20 05:34 | 35.94247 | 120.49815 | 22611 ft | 442 kts | 168° |
| 2026-04-20 05:34 | 35.88582 | 120.52938 | 23447 ft | 453 kts | 164° |
| 2026-04-20 05:35 | 35.85721 | 120.54600 | 23870 ft | 455 kts | 165° |
| 2026-04-20 05:35 | 35.82841 | 120.56240 | 24227 ft | 457 kts | 165° |
| 2026-04-20 05:35 | 35.79933 | 120.57856 | 24549 ft | 460 kts | 166° |
| 2026-04-20 05:35 | 35.77000 | 120.59462 | 24871 ft | 463 kts | 166° |
| 2026-04-20 05:36 | 35.74047 | 120.61072 | 25202 ft | 466 kts | 166° |
| 2026-04-20 05:36 | 35.71096 | 120.62800 | 25532 ft | 473 kts | 162° |
| 2026-04-20 05:36 | 35.68187 | 120.64752 | 25854 ft | 479 kts | 160° |
| 2026-04-20 05:36 | 35.65282 | 120.66796 | 26172 ft | 482 kts | 159° |
| 2026-04-20 05:37 | 35.62361 | 120.68836 | 26431 ft | 484 kts | 160° |
| 2026-04-20 05:37 | 35.59412 | 120.70844 | 26825 ft | 484 kts | 160° |
| 2026-04-20 05:37 | 35.56499 | 120.72970 | 27131 ft | 496 kts | 150° |
| 2026-04-20 05:37 | 35.54058 | 120.76085 | 27344 ft | 519 kts | 129° |
| 2026-04-20 05:38 | 35.52442 | 120.80106 | 27635 ft | 532 kts | 109° |
| 2026-04-20 05:38 | 35.51828 | 120.84591 | 27920 ft | 536 kts | 90° |
| 2026-04-20 05:38 | 35.52240 | 120.89053 | 28176 ft | 533 kts | 70° |
| 2026-04-20 05:38 | 35.53594 | 120.93249 | 28466 ft | 527 kts | 59° |
| 2026-04-20 05:39 | 35.55182 | 120.97308 | 28847 ft | 527 kts | 58° |
| 2026-04-20 05:39 | 35.56795 | 121.01359 | 29123 ft | 529 kts | 58° |
| 2026-04-20 05:39 | 35.58397 | 121.05439 | 29238 ft | 533 kts | 59° |
| 2026-04-20 05:39 | 35.59978 | 121.09572 | 29223 ft | 534 kts | 59° |
| 2026-04-20 05:40 | 35.63045 | 121.17831 | 29213 ft | 527 kts | 60° |
| 2026-04-20 05:40 | 35.66071 | 121.26050 | 29206 ft | 528 kts | 60° |
| 2026-04-20 05:41 | 35.69118 | 121.34302 | 29225 ft | 531 kts | 60° |
| 2026-04-20 05:41 | 35.72170 | 121.42599 | 29225 ft | 532 kts | 60° |
| 2026-04-20 05:42 | 35.75195 | 121.50864 | 29218 ft | 533 kts | 60° |
| 2026-04-20 05:42 | 35.78237 | 121.59204 | 29209 ft | 534 kts | 61° |
| 2026-04-20 05:43 | 35.81277 | 121.67553 | 29213 ft | 535 kts | 60° |
| 2026-04-20 05:43 | 35.84320 | 121.75929 | 29213 ft | 535 kts | 60° |
| 2026-04-20 05:44 | 35.87354 | 121.84309 | 29199 ft | 535 kts | 61° |
| 2026-04-20 05:44 | 35.90379 | 121.92684 | 29210 ft | 534 kts | 61° |
| 2026-04-20 05:45 | 35.93401 | 122.01071 | 29209 ft | 535 kts | 60° |
| 2026-04-20 05:45 | 35.96419 | 122.09471 | 29181 ft | 535 kts | 61° |
| 2026-04-20 05:46 | 35.99403 | 122.17801 | 29202 ft | 534 kts | 61° |
| 2026-04-20 05:46 | 36.02403 | 122.26197 | 29196 ft | 534 kts | 61° |
| 2026-04-20 05:47 | 36.05404 | 122.34613 | 29201 ft | 536 kts | 61° |
| 2026-04-20 05:47 | 36.08402 | 122.43050 | 29197 ft | 535 kts | 61° |
| 2026-04-20 05:48 | 36.11391 | 122.51483 | 29194 ft | 535 kts | 61° |
| 2026-04-20 05:48 | 36.14374 | 122.59924 | 29252 ft | 536 kts | 61° |
| 2026-04-20 05:49 | 36.17361 | 122.68396 | 29199 ft | 537 kts | 62° |
| 2026-04-20 05:49 | 36.20346 | 122.76889 | 29192 ft | 538 kts | 62° |
| 2026-04-20 05:50 | 36.23328 | 122.85394 | 29190 ft | 539 kts | 62° |
| 2026-04-20 05:50 | 36.26304 | 122.93911 | 29185 ft | 538 kts | 62° |
| 2026-04-20 05:51 | 36.29274 | 123.02431 | 29186 ft | 538 kts | 62° |
| 2026-04-20 05:51 | 36.32241 | 123.10966 | 29184 ft | 538 kts | 62° |
| 2026-04-20 05:52 | 36.35178 | 123.19439 | 29169 ft | 538 kts | 63° |
| 2026-04-20 05:52 | 36.38127 | 123.27969 | 29182 ft | 539 kts | 63° |
| 2026-04-20 05:53 | 36.41884 | 123.35870 | 29188 ft | 524 kts | 43° |
| 2026-04-20 05:53 | 36.47148 | 123.41918 | 29177 ft | 509 kts | 24° |
| 2026-04-20 05:54 | 36.53045 | 123.46708 | 29180 ft | 510 kts | 23° |
| 2026-04-20 05:54 | 36.58974 | 123.51587 | 29173 ft | 512 kts | 24° |
| 2026-04-20 05:55 | 36.64876 | 123.56560 | 29165 ft | 512 kts | 24° |
| 2026-04-20 05:55 | 36.70783 | 123.61532 | 29167 ft | 512 kts | 23° |
| 2026-04-20 05:56 | 36.76704 | 123.66457 | 29164 ft | 511 kts | 23° |
| 2026-04-20 05:56 | 36.82627 | 123.71385 | 29207 ft | 510 kts | 23° |
| 2026-04-20 05:57 | 36.88534 | 123.76317 | 29170 ft | 511 kts | 23° |
| 2026-04-20 05:57 | 36.94398 | 123.81231 | 29163 ft | 511 kts | 23° |
| 2026-04-20 05:58 | 37.00344 | 123.86222 | 29212 ft | 512 kts | 22° |
| 2026-04-20 05:58 | 37.06267 | 123.91201 | 29165 ft | 513 kts | 22° |
| 2026-04-20 05:59 | 37.12135 | 123.96200 | 29109 ft | 519 kts | 28° |
| 2026-04-20 05:59 | 37.14695 | 123.99523 | 29172 ft | 544 kts | 49° |
| 2026-04-20 05:59 | 37.16458 | 124.03768 | 29149 ft | 556 kts | 67° |
| 2026-04-20 06:00 | 37.17269 | 124.08511 | 29152 ft | 556 kts | 86° |
| 2026-04-20 06:00 | 37.17407 | 124.13363 | 29170 ft | 557 kts | 90° |
| 2026-04-20 06:00 | 37.17522 | 124.23106 | 29116 ft | 561 kts | 89° |
| 2026-04-20 06:01 | 37.17776 | 124.31246 | 28839 ft | 564 kts | 89° |
| 2026-04-20 06:01 | 37.17891 | 124.36178 | 28107 ft | 565 kts | 89° |
| 2026-04-20 06:01 | 37.17995 | 124.41080 | 27613 ft | 559 kts | 89° |
| 2026-04-20 06:02 | 37.18099 | 124.45920 | 27128 ft | 553 kts | 89° |
| 2026-04-20 06:02 | 37.18207 | 124.50733 | 26647 ft | 548 kts | 90° |
| 2026-04-20 06:02 | 37.18315 | 124.55490 | 26118 ft | 544 kts | 90° |
| 2026-04-20 06:02 | 37.18421 | 124.60219 | 25617 ft | 539 kts | 90° |
| 2026-04-20 06:03 | 37.18524 | 124.64908 | 25104 ft | 536 kts | 90° |
| 2026-04-20 06:03 | 37.18623 | 124.69561 | 24578 ft | 532 kts | 90° |
| 2026-04-20 06:03 | 37.18718 | 124.74131 | 24050 ft | 529 kts | 91° |
| 2026-04-20 06:03 | 37.18812 | 124.78729 | 23550 ft | 526 kts | 91° |
| 2026-04-20 06:04 | 37.18903 | 124.83296 | 22966 ft | 522 kts | 91° |
| 2026-04-20 06:04 | 37.18995 | 124.87809 | 22636 ft | 512 kts | 90° |
| 2026-04-20 06:04 | 37.19086 | 124.92245 | 22154 ft | 506 kts | 90° |
| 2026-04-20 06:04 | 37.19175 | 124.96645 | 21660 ft | 501 kts | 90° |
| 2026-04-20 06:05 | 37.19262 | 125.00999 | 21146 ft | 497 kts | 90° |
| 2026-04-20 06:05 | 37.19346 | 125.05307 | 20695 ft | 492 kts | 90° |
| 2026-04-20 06:05 | 37.19428 | 125.09583 | 20198 ft | 487 kts | 90° |
| 2026-04-20 06:05 | 37.19506 | 125.13807 | 19704 ft | 483 kts | 90° |
| 2026-04-20 06:06 | 37.19582 | 125.17953 | 19219 ft | 478 kts | 90° |
| 2026-04-20 06:06 | 37.19656 | 125.22099 | 18731 ft | 474 kts | 90° |
| 2026-04-20 06:06 | 37.19729 | 125.26217 | 18226 ft | 469 kts | 90° |
| 2026-04-20 06:06 | 37.19799 | 125.30286 | 17688 ft | 464 kts | 90° |
| 2026-04-20 06:07 | 37.19867 | 125.34319 | 17180 ft | 459 kts | 90° |
| 2026-04-20 06:07 | 37.19934 | 125.38295 | 16686 ft | 453 kts | 90° |
| 2026-04-20 06:07 | 37.19998 | 125.42221 | 16212 ft | 447 kts | 89° |
| 2026-04-20 06:07 | 37.20060 | 125.46100 | 15745 ft | 442 kts | 90° |
| 2026-04-20 06:08 | 37.19855 | 125.49910 | 15283 ft | 434 kts | 106° |
| 2026-04-20 06:08 | 37.18876 | 125.53407 | 15088 ft | 418 kts | 115° |
| 2026-04-20 06:08 | 37.17849 | 125.56784 | 14741 ft | 411 kts | 114° |
| 2026-04-20 06:08 | 37.16877 | 125.60091 | 14327 ft | 408 kts | 113° |
| 2026-04-20 06:09 | 37.15917 | 125.63429 | 13894 ft | 405 kts | 113° |
| 2026-04-20 06:09 | 37.14974 | 125.66739 | 13387 ft | 403 kts | 112° |
| 2026-04-20 06:09 | 37.14039 | 125.70030 | 12911 ft | 400 kts | 112° |
| 2026-04-20 06:09 | 37.13110 | 125.73296 | 12444 ft | 396 kts | 112° |
| 2026-04-20 06:10 | 37.12184 | 125.76542 | 11980 ft | 393 kts | 112° |
| 2026-04-20 06:10 | 37.11271 | 125.79765 | 11532 ft | 391 kts | 110° |
| 2026-04-20 06:10 | 37.10719 | 125.83086 | 11107 ft | 390 kts | 97° |
| 2026-04-20 06:10 | 37.10476 | 125.86446 | 10838 ft | 382 kts | 95° |
| 2026-04-20 06:11 | 37.10258 | 125.89721 | 10672 ft | 372 kts | 96° |
| 2026-04-20 06:11 | 37.10019 | 125.92909 | 10504 ft | 363 kts | 96° |
| 2026-04-20 06:11 | 37.09759 | 125.96014 | 10342 ft | 354 kts | 97° |
| 2026-04-20 06:11 | 37.09492 | 125.99040 | 10194 ft | 345 kts | 97° |
| 2026-04-20 06:12 | 37.09239 | 126.01989 | 10040 ft | 337 kts | 94° |
| 2026-04-20 06:12 | 37.09199 | 126.04881 | 9941 ft | 327 kts | 88° |
| 2026-04-20 06:12 | 37.09262 | 126.07695 | 9637 ft | 325 kts | 88° |
| 2026-04-20 06:12 | 37.09319 | 126.10542 | 9251 ft | 326 kts | 88° |
| 2026-04-20 06:13 | 37.09363 | 126.13381 | 8895 ft | 324 kts | 88° |
| 2026-04-20 06:13 | 37.09395 | 126.16151 | 8630 ft | 313 kts | 89° |
| 2026-04-20 06:13 | 37.09421 | 126.18856 | 8356 ft | 309 kts | 89° |
| 2026-04-20 06:13 | 37.09445 | 126.21541 | 8092 ft | 307 kts | 89° |
| 2026-04-20 06:14 | 37.09531 | 126.24167 | 7807 ft | 305 kts | 77° |
| 2026-04-20 06:14 | 37.10317 | 126.26564 | 7619 ft | 292 kts | 53° |
| 2026-04-20 06:14 | 37.11444 | 126.28628 | 7492 ft | 283 kts | 49° |
| 2026-04-20 06:14 | 37.12591 | 126.30595 | 7364 ft | 276 kts | 49° |
| 2026-04-20 06:15 | 37.13728 | 126.32490 | 7234 ft | 266 kts | 41° |
| 2026-04-20 06:15 | 37.15176 | 126.33730 | 7074 ft | 243 kts | 8° |
| 2026-04-20 06:15 | 37.16788 | 126.33969 | 6892 ft | 228 kts | 346° |
| 2026-04-20 06:15 | 37.18305 | 126.33555 | 6689 ft | 220 kts | 328° |
| 2026-04-20 06:16 | 37.19587 | 126.32586 | 6489 ft | 213 kts | 317° |
| 2026-04-20 06:16 | 37.20799 | 126.31517 | 6271 ft | 213 kts | 318° |
| 2026-04-20 06:16 | 37.22005 | 126.30443 | 6049 ft | 212 kts | 318° |
| 2026-04-20 06:16 | 37.23209 | 126.29369 | 5837 ft | 212 kts | 318° |
| 2026-04-20 06:17 | 37.24407 | 126.28303 | 5627 ft | 211 kts | 319° |
| 2026-04-20 06:17 | 37.25776 | 126.27584 | 5394 ft | 223 kts | 349° |
| 2026-04-20 06:17 | 37.27314 | 126.27938 | 5184 ft | 237 kts | 20° |
| 2026-04-20 06:17 | 37.28617 | 126.29316 | 4964 ft | 248 kts | 47° |
| 2026-04-20 06:18 | 37.29628 | 126.31087 | 4721 ft | 251 kts | 50° |
| 2026-04-20 06:18 | 37.30627 | 126.32886 | 4455 ft | 251 kts | 50° |
| 2026-04-20 06:18 | 37.31631 | 126.34683 | 4202 ft | 251 kts | 49° |
| 2026-04-20 06:18 | 37.32636 | 126.36481 | 3983 ft | 251 kts | 52° |
| 2026-04-20 06:19 | 37.33239 | 126.38531 | 3708 ft | 262 kts | 84° |
| 2026-04-20 06:19 | 37.32878 | 126.40737 | 3517 ft | 258 kts | 119° |
| 2026-04-20 06:19 | 37.31724 | 126.42364 | 3412 ft | 244 kts | 144° |
| 2026-04-20 06:19 | 37.30362 | 126.43610 | 3352 ft | 243 kts | 147° |
| 2026-04-20 06:20 | 37.28946 | 126.44830 | 3275 ft | 245 kts | 148° |
| 2026-04-20 06:20 | 37.27552 | 126.46024 | 3194 ft | 248 kts | 148° |
| 2026-04-20 06:20 | 37.26124 | 126.47267 | 3082 ft | 249 kts | 147° |
| 2026-04-20 06:20 | 37.24743 | 126.48482 | 2998 ft | 234 kts | 147° |
| 2026-04-20 06:21 | 37.23451 | 126.49624 | 2907 ft | 221 kts | 147° |
| 2026-04-20 06:21 | 37.22232 | 126.50702 | 2817 ft | 208 kts | 148° |
| 2026-04-20 06:21 | 37.21050 | 126.51747 | 2742 ft | 208 kts | 148° |
| 2026-04-20 06:21 | 37.19871 | 126.52802 | 2661 ft | 208 kts | 142° |
| 2026-04-20 06:22 | 37.19091 | 126.54284 | 2572 ft | 203 kts | 96° |
| 2026-04-20 06:22 | 37.19220 | 126.55973 | 2567 ft | 193 kts | 60° |
| 2026-04-20 06:22 | 37.19892 | 126.57413 | 2528 ft | 191 kts | 48° |
| 2026-04-20 06:22 | 37.20664 | 126.58772 | 2450 ft | 190 kts | 46° |
| 2026-04-20 06:23 | 37.21423 | 126.60099 | 2383 ft | 185 kts | 46° |
| 2026-04-20 06:23 | 37.22233 | 126.61321 | 2337 ft | 178 kts | 28° |
| 2026-04-20 06:23 | 37.23325 | 126.61596 | 2273 ft | 157 kts | 336° |
| 2026-04-20 06:23 | 37.24290 | 126.60958 | 2245 ft | 158 kts | 328° |
| 2026-04-20 06:24 | 37.25253 | 126.60339 | 2213 ft | 158 kts | 329° |
| 2026-04-20 06:24 | 37.26207 | 126.59664 | 2159 ft | 156 kts | 326° |
| 2026-04-20 06:24 | 37.27128 | 126.58928 | 2106 ft | 157 kts | 324° |
| 2026-04-20 06:24 | 37.28024 | 126.58165 | 2080 ft | 154 kts | 323° |
| 2026-04-20 06:25 | 37.28903 | 126.57396 | 2024 ft | 154 kts | 323° |
| 2026-04-20 06:25 | 37.29775 | 126.56622 | 1975 ft | 153 kts | 323° |
| 2026-04-20 06:25 | 37.30646 | 126.55845 | 1929 ft | 153 kts | 323° |
| 2026-04-20 06:25 | 37.31520 | 126.55063 | 1908 ft | 155 kts | 322° |
| 2026-04-20 06:26 | 37.32405 | 126.54272 | 1847 ft | 156 kts | 322° |
| 2026-04-20 06:26 | 37.33389 | 126.53392 | 1789 ft | 154 kts | 322° |
| 2026-04-20 06:26 | 37.36685 | 126.50451 | 1616 ft | 158 kts | 322° |
| 2026-04-20 06:26 | 37.37554 | 126.49669 | 1607 ft | 151 kts | 322° |
| 2026-04-20 06:27 | 37.38374 | 126.48934 | 1441 ft | 140 kts | 322° |
| 2026-04-20 06:27 | 37.39172 | 126.48220 | 1269 ft | 142 kts | 322° |
| 2026-04-20 06:27 | 37.39975 | 126.47501 | 1063 ft | 140 kts | 321° |
| 2026-04-20 06:27 | 37.40747 | 126.46810 | 850 ft | 132 kts | 321° |
| 2026-04-20 06:28 | 37.41501 | 126.46136 | 697 ft | 136 kts | 320° |
| 2026-04-20 06:28 | 37.42291 | 126.45433 | 510 ft | 140 kts | 321° |
| 2026-04-20 06:28 | 37.43091 | 126.44725 | 316 ft | 140 kts | 321° |
| 2026-04-20 06:28 | 37.43881 | 126.44015 | 134 ft | 138 kts | 320° |
| 2026-04-20 06:29 | 37.44643 | 126.43336 | 33 ft | 129 kts | 321° |
| 2026-04-20 06:29 | 37.45214 | 126.42819 | 30 ft | 70 kts | 325° |
| 2026-04-20 06:29 | 37.45469 | 126.42651 | 32 ft | 34 kts | 346° |
| 2026-04-20 06:29 | 37.45578 | 126.42647 | 32 ft | 10 kts | 33° |
| 2026-04-20 06:30 | 37.45602 | 126.42721 | 32 ft | 10 kts | 87° |
| 2026-04-20 06:30 | 37.45630 | 126.42794 | 32 ft | 9 kts | 54° |
| 2026-04-20 06:30 | 37.45672 | 126.42869 | 32 ft | 12 kts | 54° |
| 2026-04-20 06:30 | 37.45723 | 126.42960 | 30 ft | 13 kts | 55° |
| 2026-04-20 06:31 | 37.45774 | 126.43050 | 32 ft | 12 kts | 54° |
| 2026-04-20 06:31 | 37.45805 | 126.43149 | 32 ft | 13 kts | 80° |
| 2026-04-20 06:31 | 37.45829 | 126.43255 | 32 ft | 13 kts | 97° |
| 2026-04-20 06:31 | 37.45765 | 126.43326 | 32 ft | 12 kts | 144° |
| 2026-04-20 06:32 | 37.45696 | 126.43388 | 30 ft | 12 kts | 145° |
| 2026-04-20 06:32 | 37.45624 | 126.43451 | 32 ft | 14 kts | 145° |
| 2026-04-20 06:32 | 37.45547 | 126.43519 | 31 ft | 13 kts | 144° |
| 2026-04-20 06:32 | 37.45473 | 126.43586 | 32 ft | 13 kts | 144° |
| 2026-04-20 06:33 | 37.45401 | 126.43651 | 32 ft | 13 kts | 144° |
| 2026-04-20 06:33 | 37.45331 | 126.43714 | 30 ft | 12 kts | 144° |
| 2026-04-20 06:33 | 37.45263 | 126.43775 | 30 ft | 12 kts | 144° |
| 2026-04-20 06:33 | 37.45195 | 126.43833 | 32 ft | 12 kts | 144° |
| 2026-04-20 06:34 | 37.45122 | 126.43898 | 32 ft | 16 kts | 144° |
| 2026-04-20 06:34 | 37.45028 | 126.43981 | 31 ft | 17 kts | 145° |
| 2026-04-20 06:34 | 37.45029 | 126.44208 | 31 ft | 15 kts | 82° |
| 2026-04-20 06:35 | 37.44980 | 126.44321 | 32 ft | 15 kts | 125° |
| 2026-04-20 06:35 | 37.44922 | 126.44424 | 32 ft | 14 kts | 126° |
| 2026-04-20 06:35 | 37.44865 | 126.44522 | 32 ft | 14 kts | 126° |
| 2026-04-20 06:35 | 37.44807 | 126.44609 | 32 ft | 13 kts | 152° |
| 2026-04-20 06:36 | 37.44769 | 126.44624 | 32 ft | 3 kts | 136° |
| 2026-04-20 06:36 | 37.44761 | 126.44658 | 30 ft | 5 kts | 108° |
| 2026-04-20 06:36 | 37.44751 | 126.44697 | 32 ft | 5 kts | 108° |
| 2026-04-20 06:36 | 37.44745 | 126.44721 | 30 ft | 1 kts | 108° |
| 2026-04-20 06:37 | 37.44744 | 126.44727 | 32 ft | 0 kts | 108° |